sensor_id;sensor_type;location;lat;lon;timestamp;temperature;humidity
20200;DHT22;36284;37.236;-121.934;2022-09-06T00:01:07;42.70;47.90
20200;DHT22;36284;37.236;-121.934;2022-09-06T00:03:35;42.60;49.30
20200;DHT22;36284;37.236;-121.934;2022-09-06T00:06:13;42.30;49.00
20200;DHT22;36284;37.236;-121.934;2022-09-06T00:08:42;42.30;46.70
20200;DHT22;36284;37.236;-121.934;2022-09-06T00:11:10;42.30;47.70
20200;DHT22;36284;37.236;-121.934;2022-09-06T00:13:38;42.40;46.70
20200;DHT22;36284;37.236;-121.934;2022-09-06T00:16:20;42.40;47.00
20200;DHT22;36284;37.236;-121.934;2022-09-06T00:18:52;42.10;46.30
20200;DHT22;36284;37.236;-121.934;2022-09-06T00:21:27;42.30;47.30
20200;DHT22;36284;37.236;-121.934;2022-09-06T00:23:54;42.20;47.00
20200;DHT22;36284;37.236;-121.934;2022-09-06T00:26:22;41.90;46.30
20200;DHT22;36284;37.236;-121.934;2022-09-06T00:28:49;41.80;48.70
20200;DHT22;36284;37.236;-121.934;2022-09-06T00:31:22;41.90;48.30
20200;DHT22;36284;37.236;-121.934;2022-09-06T00:33:49;41.80;49.90
20200;DHT22;36284;37.236;-121.934;2022-09-06T00:36:16;41.90;50.20
20200;DHT22;36284;37.236;-121.934;2022-09-06T00:38:44;41.80;50.10
20200;DHT22;36284;37.236;-121.934;2022-09-06T00:41:13;41.70;51.20
20200;DHT22;36284;37.236;-121.934;2022-09-06T00:43:41;41.40;51.60
20200;DHT22;36284;37.236;-121.934;2022-09-06T00:46:11;41.10;51.20
20200;DHT22;36284;37.236;-121.934;2022-09-06T00:48:39;41.00;50.30
20200;DHT22;36284;37.236;-121.934;2022-09-06T00:51:09;41.00;50.90
20200;DHT22;36284;37.236;-121.934;2022-09-06T00:53:36;40.80;50.00
20200;DHT22;36284;37.236;-121.934;2022-09-06T00:56:04;40.80;50.40
20200;DHT22;36284;37.236;-121.934;2022-09-06T00:58:31;40.50;51.10
20200;DHT22;36284;37.236;-121.934;2022-09-06T01:00:58;40.30;51.20
20200;DHT22;36284;37.236;-121.934;2022-09-06T01:03:25;40.00;51.20
20200;DHT22;36284;37.236;-121.934;2022-09-06T01:06:12;39.90;51.50
20200;DHT22;36284;37.236;-121.934;2022-09-06T01:30:23;38.70;53.80
20200;DHT22;36284;37.236;-121.934;2022-09-06T01:37:54;38.50;55.30
20200;DHT22;36284;37.236;-121.934;2022-09-06T01:40:22;38.20;55.50
20200;DHT22;36284;37.236;-121.934;2022-09-06T01:42:50;38.10;56.50
20200;DHT22;36284;37.236;-121.934;2022-09-06T01:45:21;38.00;55.80
20200;DHT22;36284;37.236;-121.934;2022-09-06T01:48:02;37.60;56.40
20200;DHT22;36284;37.236;-121.934;2022-09-06T01:58:55;37.00;56.50
20200;DHT22;36284;37.236;-121.934;2022-09-06T02:06:32;36.40;58.80
20200;DHT22;36284;37.236;-121.934;2022-09-06T02:09:06;36.10;59.10
20200;DHT22;36284;37.236;-121.934;2022-09-06T02:12:04;35.70;59.30
20200;DHT22;36284;37.236;-121.934;2022-09-06T02:14:35;35.40;59.60
20200;DHT22;36284;37.236;-121.934;2022-09-06T02:17:07;35.20;60.50
20200;DHT22;36284;37.236;-121.934;2022-09-06T02:19:57;35.00;59.80
20200;DHT22;36284;37.236;-121.934;2022-09-06T02:22:27;34.70;60.90
20200;DHT22;36284;37.236;-121.934;2022-09-06T02:24:57;34.50;61.70
20200;DHT22;36284;37.236;-121.934;2022-09-06T02:27:26;34.20;60.20
20200;DHT22;36284;37.236;-121.934;2022-09-06T02:29:53;34.20;61.10
20200;DHT22;36284;37.236;-121.934;2022-09-06T02:32:22;34.00;60.80
20200;DHT22;36284;37.236;-121.934;2022-09-06T02:34:51;33.80;62.40
20200;DHT22;36284;37.236;-121.934;2022-09-06T02:37:18;33.50;62.30
20200;DHT22;36284;37.236;-121.934;2022-09-06T02:39:46;33.30;61.30
20200;DHT22;36284;37.236;-121.934;2022-09-06T02:42:14;33.20;62.30
20200;DHT22;36284;37.236;-121.934;2022-09-06T02:44:43;33.10;63.10
20200;DHT22;36284;37.236;-121.934;2022-09-06T02:47:10;33.00;62.00
20200;DHT22;36284;37.236;-121.934;2022-09-06T02:49:36;32.80;65.30
20200;DHT22;36284;37.236;-121.934;2022-09-06T02:52:04;32.70;63.10
20200;DHT22;36284;37.236;-121.934;2022-09-06T02:54:31;32.50;63.40
20200;DHT22;36284;37.236;-121.934;2022-09-06T02:56:58;32.40;64.60
20200;DHT22;36284;37.236;-121.934;2022-09-06T02:59:25;32.20;64.20
20200;DHT22;36284;37.236;-121.934;2022-09-06T03:01:52;32.10;64.20
20200;DHT22;36284;37.236;-121.934;2022-09-06T03:04:19;32.00;65.10
20200;DHT22;36284;37.236;-121.934;2022-09-06T03:06:46;31.70;65.30
20200;DHT22;36284;37.236;-121.934;2022-09-06T03:09:13;31.60;65.20
20200;DHT22;36284;37.236;-121.934;2022-09-06T03:11:40;31.40;65.80
20200;DHT22;36284;37.236;-121.934;2022-09-06T03:14:07;31.30;66.60
20200;DHT22;36284;37.236;-121.934;2022-09-06T03:16:34;31.10;66.10
20200;DHT22;36284;37.236;-121.934;2022-09-06T03:19:02;31.10;65.60
20200;DHT22;36284;37.236;-121.934;2022-09-06T03:21:29;31.00;65.50
20200;DHT22;36284;37.236;-121.934;2022-09-06T03:23:56;30.90;65.30
20200;DHT22;36284;37.236;-121.934;2022-09-06T03:26:25;30.80;66.50
20200;DHT22;36284;37.236;-121.934;2022-09-06T03:28:52;30.70;67.70
20200;DHT22;36284;37.236;-121.934;2022-09-06T03:31:19;30.60;65.90
20200;DHT22;36284;37.236;-121.934;2022-09-06T03:33:45;30.50;67.90
20200;DHT22;36284;37.236;-121.934;2022-09-06T03:36:13;30.30;66.70
20200;DHT22;36284;37.236;-121.934;2022-09-06T03:38:40;30.30;67.60
20200;DHT22;36284;37.236;-121.934;2022-09-06T03:41:07;30.30;66.90
20200;DHT22;36284;37.236;-121.934;2022-09-06T03:43:34;30.20;69.40
20200;DHT22;36284;37.236;-121.934;2022-09-06T03:46:01;30.10;67.30
20200;DHT22;36284;37.236;-121.934;2022-09-06T03:48:29;30.10;66.80
20200;DHT22;36284;37.236;-121.934;2022-09-06T03:50:57;30.00;67.40
20200;DHT22;36284;37.236;-121.934;2022-09-06T03:53:25;29.90;67.20
20200;DHT22;36284;37.236;-121.934;2022-09-06T03:55:55;29.80;66.30
20200;DHT22;36284;37.236;-121.934;2022-09-06T03:58:29;29.80;67.60
20200;DHT22;36284;37.236;-121.934;2022-09-06T04:01:06;29.60;66.90
20200;DHT22;36284;37.236;-121.934;2022-09-06T04:03:34;29.60;68.00
20200;DHT22;36284;37.236;-121.934;2022-09-06T04:06:02;29.50;67.30
20200;DHT22;36284;37.236;-121.934;2022-09-06T04:08:29;29.30;69.00
20200;DHT22;36284;37.236;-121.934;2022-09-06T04:10:57;29.20;67.30
20200;DHT22;36284;37.236;-121.934;2022-09-06T04:13:26;29.10;67.30
20200;DHT22;36284;37.236;-121.934;2022-09-06T04:15:53;29.20;69.10
20200;DHT22;36284;37.236;-121.934;2022-09-06T04:18:20;29.10;68.90
20200;DHT22;36284;37.236;-121.934;2022-09-06T04:20:49;29.00;68.70
20200;DHT22;36284;37.236;-121.934;2022-09-06T04:23:16;29.00;66.80
20200;DHT22;36284;37.236;-121.934;2022-09-06T04:25:52;28.90;68.60
20200;DHT22;36284;37.236;-121.934;2022-09-06T04:28:19;28.80;66.60
20200;DHT22;36284;37.236;-121.934;2022-09-06T04:30:57;28.80;66.80
20200;DHT22;36284;37.236;-121.934;2022-09-06T04:33:25;28.70;66.70
20200;DHT22;36284;37.236;-121.934;2022-09-06T04:35:53;28.70;67.90
20200;DHT22;36284;37.236;-121.934;2022-09-06T04:38:23;28.70;67.40
20200;DHT22;36284;37.236;-121.934;2022-09-06T04:40:50;28.70;66.10
20200;DHT22;36284;37.236;-121.934;2022-09-06T04:43:17;28.70;64.90
20200;DHT22;36284;37.236;-121.934;2022-09-06T04:45:44;28.60;65.40
20200;DHT22;36284;37.236;-121.934;2022-09-06T04:48:11;28.60;64.00
20200;DHT22;36284;37.236;-121.934;2022-09-06T04:50:38;28.60;64.60
20200;DHT22;36284;37.236;-121.934;2022-09-06T04:53:05;28.50;64.80
20200;DHT22;36284;37.236;-121.934;2022-09-06T04:55:33;28.50;66.50
20200;DHT22;36284;37.236;-121.934;2022-09-06T04:58:00;28.40;64.70
20200;DHT22;36284;37.236;-121.934;2022-09-06T05:00:33;28.30;66.10
20200;DHT22;36284;37.236;-121.934;2022-09-06T05:03:00;28.20;67.80
20200;DHT22;36284;37.236;-121.934;2022-09-06T05:05:27;28.10;65.40
20200;DHT22;36284;37.236;-121.934;2022-09-06T05:07:55;28.20;67.30
20200;DHT22;36284;37.236;-121.934;2022-09-06T05:10:22;28.20;67.80
20200;DHT22;36284;37.236;-121.934;2022-09-06T05:12:51;28.00;65.90
20200;DHT22;36284;37.236;-121.934;2022-09-06T05:15:20;28.20;67.80
20200;DHT22;36284;37.236;-121.934;2022-09-06T05:17:47;28.10;66.40
20200;DHT22;36284;37.236;-121.934;2022-09-06T05:20:14;28.10;66.70
20200;DHT22;36284;37.236;-121.934;2022-09-06T05:22:41;28.00;66.90
20200;DHT22;36284;37.236;-121.934;2022-09-06T05:25:09;27.90;65.50
20200;DHT22;36284;37.236;-121.934;2022-09-06T05:27:35;27.90;65.30
20200;DHT22;36284;37.236;-121.934;2022-09-06T05:30:03;27.90;67.00
20200;DHT22;36284;37.236;-121.934;2022-09-06T05:32:30;27.90;66.50
20200;DHT22;36284;37.236;-121.934;2022-09-06T05:34:57;27.90;67.10
20200;DHT22;36284;37.236;-121.934;2022-09-06T05:37:24;27.90;66.90
20200;DHT22;36284;37.236;-121.934;2022-09-06T05:39:50;27.80;67.50
20200;DHT22;36284;37.236;-121.934;2022-09-06T05:42:17;27.80;69.40
20200;DHT22;36284;37.236;-121.934;2022-09-06T05:44:44;27.70;67.20
20200;DHT22;36284;37.236;-121.934;2022-09-06T05:47:11;27.80;67.20
20200;DHT22;36284;37.236;-121.934;2022-09-06T05:49:38;27.80;67.40
20200;DHT22;36284;37.236;-121.934;2022-09-06T05:52:05;27.70;68.30
20200;DHT22;36284;37.236;-121.934;2022-09-06T05:54:32;27.60;66.60
20200;DHT22;36284;37.236;-121.934;2022-09-06T05:56:59;27.50;66.90
20200;DHT22;36284;37.236;-121.934;2022-09-06T05:59:26;27.40;65.60
20200;DHT22;36284;37.236;-121.934;2022-09-06T06:01:53;27.50;66.90
20200;DHT22;36284;37.236;-121.934;2022-09-06T06:04:21;27.40;65.90
20200;DHT22;36284;37.236;-121.934;2022-09-06T06:06:48;27.30;65.90
20200;DHT22;36284;37.236;-121.934;2022-09-06T06:09:15;27.30;65.90
20200;DHT22;36284;37.236;-121.934;2022-09-06T06:11:42;27.30;66.30
20200;DHT22;36284;37.236;-121.934;2022-09-06T06:14:09;27.20;67.90
20200;DHT22;36284;37.236;-121.934;2022-09-06T06:16:36;27.10;68.60
20200;DHT22;36284;37.236;-121.934;2022-09-06T06:19:03;27.00;68.30
20200;DHT22;36284;37.236;-121.934;2022-09-06T06:21:32;26.90;70.30
20200;DHT22;36284;37.236;-121.934;2022-09-06T06:24:03;26.80;70.30
20200;DHT22;36284;37.236;-121.934;2022-09-06T06:26:33;26.80;70.50
20200;DHT22;36284;37.236;-121.934;2022-09-06T06:29:00;26.80;67.30
20200;DHT22;36284;37.236;-121.934;2022-09-06T06:31:31;26.80;67.30
20200;DHT22;36284;37.236;-121.934;2022-09-06T06:33:58;26.80;65.20
20200;DHT22;36284;37.236;-121.934;2022-09-06T06:36:28;26.70;65.50
20200;DHT22;36284;37.236;-121.934;2022-09-06T06:39:00;26.60;64.80
20200;DHT22;36284;37.236;-121.934;2022-09-06T06:41:29;26.60;65.20
20200;DHT22;36284;37.236;-121.934;2022-09-06T06:43:59;26.50;66.00
20200;DHT22;36284;37.236;-121.934;2022-09-06T06:46:37;26.50;64.80
20200;DHT22;36284;37.236;-121.934;2022-09-06T06:49:04;26.60;64.30
20200;DHT22;36284;37.236;-121.934;2022-09-06T06:51:32;26.60;64.50
20200;DHT22;36284;37.236;-121.934;2022-09-06T06:54:03;26.60;65.00
20200;DHT22;36284;37.236;-121.934;2022-09-06T06:56:32;26.60;64.90
20200;DHT22;36284;37.236;-121.934;2022-09-06T06:59:01;26.70;64.00
20200;DHT22;36284;37.236;-121.934;2022-09-06T07:01:30;26.70;64.30
20200;DHT22;36284;37.236;-121.934;2022-09-06T07:03:58;26.70;65.80
20200;DHT22;36284;37.236;-121.934;2022-09-06T07:06:26;26.70;64.40
20200;DHT22;36284;37.236;-121.934;2022-09-06T07:08:56;26.70;63.30
20200;DHT22;36284;37.236;-121.934;2022-09-06T07:11:24;26.60;62.40
20200;DHT22;36284;37.236;-121.934;2022-09-06T07:13:51;26.60;63.10
20200;DHT22;36284;37.236;-121.934;2022-09-06T07:16:20;26.50;63.50
20200;DHT22;36284;37.236;-121.934;2022-09-06T07:18:54;26.50;64.80
20200;DHT22;36284;37.236;-121.934;2022-09-06T07:21:23;26.40;63.90
20200;DHT22;36284;37.236;-121.934;2022-09-06T07:23:52;26.40;65.60
20200;DHT22;36284;37.236;-121.934;2022-09-06T07:26:22;26.50;62.80
20200;DHT22;36284;37.236;-121.934;2022-09-06T07:28:57;26.70;62.00
20200;DHT22;36284;37.236;-121.934;2022-09-06T07:31:25;26.90;61.70
20200;DHT22;36284;37.236;-121.934;2022-09-06T07:33:52;26.70;61.60
20200;DHT22;36284;37.236;-121.934;2022-09-06T07:36:19;26.80;61.40
20200;DHT22;36284;37.236;-121.934;2022-09-06T07:38:50;27.50;60.40
20200;DHT22;36284;37.236;-121.934;2022-09-06T07:41:17;27.50;61.40
20200;DHT22;36284;37.236;-121.934;2022-09-06T07:43:45;27.10;63.00
20200;DHT22;36284;37.236;-121.934;2022-09-06T07:46:14;26.80;64.70
20200;DHT22;36284;37.236;-121.934;2022-09-06T07:48:43;26.60;66.40
20200;DHT22;36284;37.236;-121.934;2022-09-06T07:51:15;26.50;66.20
20200;DHT22;36284;37.236;-121.934;2022-09-06T07:53:46;26.40;66.30
20200;DHT22;36284;37.236;-121.934;2022-09-06T07:56:13;26.20;65.80
20200;DHT22;36284;37.236;-121.934;2022-09-06T07:58:40;26.00;67.00
20200;DHT22;36284;37.236;-121.934;2022-09-06T08:01:27;26.00;69.70
20200;DHT22;36284;37.236;-121.934;2022-09-06T08:04:00;25.90;70.00
20200;DHT22;36284;37.236;-121.934;2022-09-06T08:06:28;25.80;68.00
20200;DHT22;36284;37.236;-121.934;2022-09-06T08:08:57;25.80;68.60
20200;DHT22;36284;37.236;-121.934;2022-09-06T08:11:26;25.80;68.40
20200;DHT22;36284;37.236;-121.934;2022-09-06T08:13:55;25.80;70.20
20200;DHT22;36284;37.236;-121.934;2022-09-06T08:16:24;25.60;70.10
20200;DHT22;36284;37.236;-121.934;2022-09-06T08:18:54;25.50;71.30
20200;DHT22;36284;37.236;-121.934;2022-09-06T08:21:22;25.50;72.30
20200;DHT22;36284;37.236;-121.934;2022-09-06T08:23:52;25.40;72.20
20200;DHT22;36284;37.236;-121.934;2022-09-06T08:26:20;25.30;71.60
20200;DHT22;36284;37.236;-121.934;2022-09-06T08:28:51;25.30;74.50
20200;DHT22;36284;37.236;-121.934;2022-09-06T08:31:19;25.40;71.00
20200;DHT22;36284;37.236;-121.934;2022-09-06T08:33:45;25.40;71.80
20200;DHT22;36284;37.236;-121.934;2022-09-06T08:36:13;25.30;69.80
20200;DHT22;36284;37.236;-121.934;2022-09-06T08:38:41;25.30;68.90
20200;DHT22;36284;37.236;-121.934;2022-09-06T08:41:28;25.30;68.00
20200;DHT22;36284;37.236;-121.934;2022-09-06T08:49:00;25.10;73.10
20200;DHT22;36284;37.236;-121.934;2022-09-06T08:54:02;25.00;72.20
20200;DHT22;36284;37.236;-121.934;2022-09-06T08:56:40;25.00;72.20
20200;DHT22;36284;37.236;-121.934;2022-09-06T08:59:12;24.90;69.30
20200;DHT22;36284;37.236;-121.934;2022-09-06T09:02:00;24.90;68.80
20200;DHT22;36284;37.236;-121.934;2022-09-06T09:04:34;24.90;69.30
20200;DHT22;36284;37.236;-121.934;2022-09-06T09:07:34;24.80;69.00
20200;DHT22;36284;37.236;-121.934;2022-09-06T09:10:14;24.80;71.80
20200;DHT22;36284;37.236;-121.934;2022-09-06T09:12:47;24.90;72.20
20200;DHT22;36284;37.236;-121.934;2022-09-06T09:15:16;24.80;73.20
20200;DHT22;36284;37.236;-121.934;2022-09-06T09:17:46;24.80;72.00
20200;DHT22;36284;37.236;-121.934;2022-09-06T09:20:14;24.70;71.20
20200;DHT22;36284;37.236;-121.934;2022-09-06T09:22:42;24.60;72.20
20200;DHT22;36284;37.236;-121.934;2022-09-06T09:25:20;24.60;72.80
20200;DHT22;36284;37.236;-121.934;2022-09-06T09:27:51;24.50;74.20
20200;DHT22;36284;37.236;-121.934;2022-09-06T09:30:26;24.40;74.10
20200;DHT22;36284;37.236;-121.934;2022-09-06T09:32:53;24.40;76.10
20200;DHT22;36284;37.236;-121.934;2022-09-06T09:35:33;24.40;72.80
20200;DHT22;36284;37.236;-121.934;2022-09-06T09:38:43;24.60;70.00
20200;DHT22;36284;37.236;-121.934;2022-09-06T09:41:33;24.70;69.00
20200;DHT22;36284;37.236;-121.934;2022-09-06T09:44:23;24.80;70.20
20200;DHT22;36284;37.236;-121.934;2022-09-06T09:46:54;24.90;70.70
20200;DHT22;36284;37.236;-121.934;2022-09-06T09:54:32;24.40;73.60
20200;DHT22;36284;37.236;-121.934;2022-09-06T09:57:05;24.30;74.50
20200;DHT22;36284;37.236;-121.934;2022-09-06T10:04:48;24.30;75.40
20200;DHT22;36284;37.236;-121.934;2022-09-06T10:07:17;24.30;76.80
20200;DHT22;36284;37.236;-121.934;2022-09-06T10:09:56;24.20;76.30
20200;DHT22;36284;37.236;-121.934;2022-09-06T10:12:42;24.20;75.90
20200;DHT22;36284;37.236;-121.934;2022-09-06T10:15:32;24.20;75.70
20200;DHT22;36284;37.236;-121.934;2022-09-06T10:17:59;24.10;74.90
20200;DHT22;36284;37.236;-121.934;2022-09-06T10:20:42;24.10;75.60
20200;DHT22;36284;37.236;-121.934;2022-09-06T10:28:57;24.00;78.00
20200;DHT22;36284;37.236;-121.934;2022-09-06T10:37:19;23.80;79.10
20200;DHT22;36284;37.236;-121.934;2022-09-06T10:39:55;23.70;79.80
20200;DHT22;36284;37.236;-121.934;2022-09-06T10:45:28;23.60;78.90
20200;DHT22;36284;37.236;-121.934;2022-09-06T10:50:47;23.80;77.70
20200;DHT22;36284;37.236;-121.934;2022-09-06T10:55:58;23.80;79.30
20200;DHT22;36284;37.236;-121.934;2022-09-06T10:58:30;23.80;80.30
20200;DHT22;36284;37.236;-121.934;2022-09-06T11:00:57;23.80;79.40
20200;DHT22;36284;37.236;-121.934;2022-09-06T11:03:45;23.70;77.70
20200;DHT22;36284;37.236;-121.934;2022-09-06T11:06:12;23.60;81.50
20200;DHT22;36284;37.236;-121.934;2022-09-06T11:11:34;23.50;80.80
20200;DHT22;36284;37.236;-121.934;2022-09-06T11:14:08;23.50;81.60
20200;DHT22;36284;37.236;-121.934;2022-09-06T11:16:51;23.30;81.30
20200;DHT22;36284;37.236;-121.934;2022-09-06T11:19:27;23.20;82.50
20200;DHT22;36284;37.236;-121.934;2022-09-06T11:29:58;23.20;82.00
20200;DHT22;36284;37.236;-121.934;2022-09-06T11:32:37;23.20;80.90
20200;DHT22;36284;37.236;-121.934;2022-09-06T11:35:07;23.10;81.40
20200;DHT22;36284;37.236;-121.934;2022-09-06T11:37:41;23.10;82.30
20200;DHT22;36284;37.236;-121.934;2022-09-06T11:40:18;23.10;82.00
20200;DHT22;36284;37.236;-121.934;2022-09-06T11:45:37;23.10;80.20
20200;DHT22;36284;37.236;-121.934;2022-09-06T11:53:22;23.00;79.70
20200;DHT22;36284;37.236;-121.934;2022-09-06T12:06:22;22.90;82.20
20200;DHT22;36284;37.236;-121.934;2022-09-06T12:08:52;22.90;80.10
20200;DHT22;36284;37.236;-121.934;2022-09-06T12:14:28;22.90;77.60
20200;DHT22;36284;37.236;-121.934;2022-09-06T12:32:32;23.00;79.80
20200;DHT22;36284;37.236;-121.934;2022-09-06T12:35:02;22.90;81.50
20200;DHT22;36284;37.236;-121.934;2022-09-06T12:37:57;22.90;82.20
20200;DHT22;36284;37.236;-121.934;2022-09-06T12:40:28;22.80;84.70
20200;DHT22;36284;37.236;-121.934;2022-09-06T12:42:56;22.80;84.10
20200;DHT22;36284;37.236;-121.934;2022-09-06T12:45:24;22.70;82.30
20200;DHT22;36284;37.236;-121.934;2022-09-06T12:48:05;22.80;81.70
20200;DHT22;36284;37.236;-121.934;2022-09-06T12:50:34;22.80;81.80
20200;DHT22;36284;37.236;-121.934;2022-09-06T12:53:02;22.80;82.30
20200;DHT22;36284;37.236;-121.934;2022-09-06T12:55:32;23.00;80.50
20200;DHT22;36284;37.236;-121.934;2022-09-06T12:58:03;23.00;81.30
20200;DHT22;36284;37.236;-121.934;2022-09-06T13:00:43;23.00;82.60
20200;DHT22;36284;37.236;-121.934;2022-09-06T13:05:52;23.00;82.30
20200;DHT22;36284;37.236;-121.934;2022-09-06T13:08:26;23.00;83.10
20200;DHT22;36284;37.236;-121.934;2022-09-06T13:10:56;22.80;85.80
20200;DHT22;36284;37.236;-121.934;2022-09-06T13:13:25;22.80;86.50
20200;DHT22;36284;37.236;-121.934;2022-09-06T13:15:52;22.70;84.70
20200;DHT22;36284;37.236;-121.934;2022-09-06T13:21:05;22.80;84.80
20200;DHT22;36284;37.236;-121.934;2022-09-06T13:23:58;22.70;85.00
20200;DHT22;36284;37.236;-121.934;2022-09-06T13:26:37;22.70;83.20
20200;DHT22;36284;37.236;-121.934;2022-09-06T13:29:12;22.80;85.60
20200;DHT22;36284;37.236;-121.934;2022-09-06T13:31:48;22.70;87.20
20200;DHT22;36284;37.236;-121.934;2022-09-06T13:34:24;22.60;87.40
20200;DHT22;36284;37.236;-121.934;2022-09-06T13:36:53;22.60;86.20
20200;DHT22;36284;37.236;-121.934;2022-09-06T13:39:43;22.60;85.40
20200;DHT22;36284;37.236;-121.934;2022-09-06T13:44:56;22.60;88.40
20200;DHT22;36284;37.236;-121.934;2022-09-06T13:47:27;22.60;86.60
20200;DHT22;36284;37.236;-121.934;2022-09-06T13:49:54;22.60;85.50
20200;DHT22;36284;37.236;-121.934;2022-09-06T13:52:21;22.70;88.00
20200;DHT22;36284;37.236;-121.934;2022-09-06T13:54:48;22.70;86.60
20200;DHT22;36284;37.236;-121.934;2022-09-06T13:57:15;22.90;86.80
20200;DHT22;36284;37.236;-121.934;2022-09-06T13:59:42;23.30;85.40
20200;DHT22;36284;37.236;-121.934;2022-09-06T14:02:12;23.40;84.20
20200;DHT22;36284;37.236;-121.934;2022-09-06T14:04:41;23.30;84.10
20200;DHT22;36284;37.236;-121.934;2022-09-06T14:07:08;23.40;85.30
20200;DHT22;36284;37.236;-121.934;2022-09-06T14:09:35;23.30;88.30
20200;DHT22;36284;37.236;-121.934;2022-09-06T14:12:03;23.20;90.10
20200;DHT22;36284;37.236;-121.934;2022-09-06T14:14:32;23.10;89.70
20200;DHT22;36284;37.236;-121.934;2022-09-06T14:16:59;23.20;89.20
20200;DHT22;36284;37.236;-121.934;2022-09-06T14:19:26;23.30;88.40
20200;DHT22;36284;37.236;-121.934;2022-09-06T14:21:54;23.50;90.10
20200;DHT22;36284;37.236;-121.934;2022-09-06T14:24:21;23.70;90.60
20200;DHT22;36284;37.236;-121.934;2022-09-06T14:26:48;23.70;89.90
20200;DHT22;36284;37.236;-121.934;2022-09-06T14:29:15;23.70;89.90
20200;DHT22;36284;37.236;-121.934;2022-09-06T14:31:42;23.70;90.40
20200;DHT22;36284;37.236;-121.934;2022-09-06T14:34:08;23.90;87.30
20200;DHT22;36284;37.236;-121.934;2022-09-06T14:36:35;24.10;87.80
20200;DHT22;36284;37.236;-121.934;2022-09-06T14:39:03;24.30;87.90
20200;DHT22;36284;37.236;-121.934;2022-09-06T14:41:30;24.30;90.00
20200;DHT22;36284;37.236;-121.934;2022-09-06T14:43:57;24.40;91.10
20200;DHT22;36284;37.236;-121.934;2022-09-06T14:46:26;24.60;92.90
20200;DHT22;36284;37.236;-121.934;2022-09-06T14:48:59;24.90;94.40
20200;DHT22;36284;37.236;-121.934;2022-09-06T14:51:27;25.20;92.70
20200;DHT22;36284;37.236;-121.934;2022-09-06T14:53:58;25.60;93.00
20200;DHT22;36284;37.236;-121.934;2022-09-06T14:56:25;26.00;91.60
20200;DHT22;36284;37.236;-121.934;2022-09-06T14:58:53;26.50;92.10
20200;DHT22;36284;37.236;-121.934;2022-09-06T15:01:25;26.80;93.00
20200;DHT22;36284;37.236;-121.934;2022-09-06T15:03:57;27.40;91.00
20200;DHT22;36284;37.236;-121.934;2022-09-06T15:06:26;27.80;90.70
20200;DHT22;36284;37.236;-121.934;2022-09-06T15:08:53;28.20;89.60
20200;DHT22;36284;37.236;-121.934;2022-09-06T15:11:34;28.50;85.40
20200;DHT22;36284;37.236;-121.934;2022-09-06T15:14:22;28.70;84.00
20200;DHT22;36284;37.236;-121.934;2022-09-06T15:16:51;28.80;82.90
20200;DHT22;36284;37.236;-121.934;2022-09-06T15:19:25;29.00;81.30
20200;DHT22;36284;37.236;-121.934;2022-09-06T15:21:53;29.40;82.50
20200;DHT22;36284;37.236;-121.934;2022-09-06T15:24:20;29.50;83.50
20200;DHT22;36284;37.236;-121.934;2022-09-06T15:26:48;29.90;83.90
20200;DHT22;36284;37.236;-121.934;2022-09-06T15:29:15;29.80;81.00
20200;DHT22;36284;37.236;-121.934;2022-09-06T15:31:42;30.20;81.80
20200;DHT22;36284;37.236;-121.934;2022-09-06T15:34:10;30.50;79.70
20200;DHT22;36284;37.236;-121.934;2022-09-06T15:36:37;30.60;80.50
20200;DHT22;36284;37.236;-121.934;2022-09-06T15:39:04;30.90;80.10
20200;DHT22;36284;37.236;-121.934;2022-09-06T15:41:34;31.00;78.80
20200;DHT22;36284;37.236;-121.934;2022-09-06T15:44:08;31.40;80.20
20200;DHT22;36284;37.236;-121.934;2022-09-06T15:46:45;31.20;78.40
20200;DHT22;36284;37.236;-121.934;2022-09-06T15:49:18;31.30;79.40
20200;DHT22;36284;37.236;-121.934;2022-09-06T15:51:45;31.70;78.50
20200;DHT22;36284;37.236;-121.934;2022-09-06T15:54:15;32.00;77.30
20200;DHT22;36284;37.236;-121.934;2022-09-06T15:56:43;32.10;77.70
20200;DHT22;36284;37.236;-121.934;2022-09-06T15:59:11;32.40;73.50
20200;DHT22;36284;37.236;-121.934;2022-09-06T16:01:38;32.70;72.40
20200;DHT22;36284;37.236;-121.934;2022-09-06T16:04:05;33.00;70.70
20200;DHT22;36284;37.236;-121.934;2022-09-06T16:06:35;33.20;72.20
20200;DHT22;36284;37.236;-121.934;2022-09-06T16:09:11;33.40;72.30
20200;DHT22;36284;37.236;-121.934;2022-09-06T16:11:43;33.50;73.20
20200;DHT22;36284;37.236;-121.934;2022-09-06T16:14:12;33.70;71.70
20200;DHT22;36284;37.236;-121.934;2022-09-06T16:16:39;33.30;71.20
20200;DHT22;36284;37.236;-121.934;2022-09-06T16:19:08;34.20;71.90
20200;DHT22;36284;37.236;-121.934;2022-09-06T16:21:37;34.40;71.40
20200;DHT22;36284;37.236;-121.934;2022-09-06T16:24:09;34.90;69.30
20200;DHT22;36284;37.236;-121.934;2022-09-06T16:26:39;35.20;71.00
20200;DHT22;36284;37.236;-121.934;2022-09-06T16:29:07;35.30;69.50
20200;DHT22;36284;37.236;-121.934;2022-09-06T16:31:35;35.30;70.10
20200;DHT22;36284;37.236;-121.934;2022-09-06T16:34:02;35.90;70.40
20200;DHT22;36284;37.236;-121.934;2022-09-06T16:36:29;36.20;68.80
20200;DHT22;36284;37.236;-121.934;2022-09-06T16:38:56;36.50;67.80
20200;DHT22;36284;37.236;-121.934;2022-09-06T16:41:43;36.90;68.50
20200;DHT22;36284;37.236;-121.934;2022-09-06T16:44:13;36.80;66.70
20200;DHT22;36284;37.236;-121.934;2022-09-06T16:46:42;37.40;66.30
20200;DHT22;36284;37.236;-121.934;2022-09-06T16:49:10;37.50;65.50
20200;DHT22;36284;37.236;-121.934;2022-09-06T16:51:36;37.70;64.80
20200;DHT22;36284;37.236;-121.934;2022-09-06T16:54:03;37.60;66.00
20200;DHT22;36284;37.236;-121.934;2022-09-06T16:56:32;37.80;66.60
20200;DHT22;36284;37.236;-121.934;2022-09-06T16:59:03;37.80;67.60
20200;DHT22;36284;37.236;-121.934;2022-09-06T17:01:31;38.10;67.80
20200;DHT22;36284;37.236;-121.934;2022-09-06T17:03:59;38.30;65.30
20200;DHT22;36284;37.236;-121.934;2022-09-06T17:06:30;38.20;66.30
20200;DHT22;36284;37.236;-121.934;2022-09-06T17:08:58;38.30;66.60
20200;DHT22;36284;37.236;-121.934;2022-09-06T17:11:26;38.30;66.00
20200;DHT22;36284;37.236;-121.934;2022-09-06T17:13:55;38.70;66.00
20200;DHT22;36284;37.236;-121.934;2022-09-06T17:16:22;38.70;65.90
20200;DHT22;36284;37.236;-121.934;2022-09-06T17:19:08;39.10;64.70
20200;DHT22;36284;37.236;-121.934;2022-09-06T17:21:36;39.60;64.60